createdAt,value
2018-09-20T00:02:19.110Z,17.59
2018-09-20T00:04:51.386Z,17.68
2018-09-20T00:07:23.827Z,17.65
2018-09-20T00:09:56.089Z,17.58
2018-09-20T00:12:28.361Z,17.58
2018-09-20T00:15:00.669Z,17.58
2018-09-20T00:17:33.008Z,17.48
2018-09-20T00:20:05.657Z,17.44
2018-09-20T00:22:37.899Z,17.43
2018-09-20T00:25:10.183Z,17.43
2018-09-20T00:27:42.566Z,17.44
2018-09-20T00:30:14.844Z,17.37
2018-09-20T00:32:47.072Z,17.34
2018-09-20T00:35:19.349Z,17.30
2018-09-20T00:37:51.609Z,17.27
2018-09-20T00:40:23.873Z,17.28
2018-09-20T00:42:56.093Z,17.27
2018-09-20T00:45:28.417Z,17.27
2018-09-20T00:48:00.782Z,17.21
2018-09-20T00:50:33.083Z,17.21
2018-09-20T00:53:05.853Z,17.17
2018-09-20T00:55:38.111Z,17.13
2018-09-20T00:58:10.333Z,17.15
2018-09-20T01:00:42.661Z,17.11
2018-09-20T01:03:14.913Z,17.08
2018-09-20T01:05:47.206Z,17.02
2018-09-20T01:08:19.462Z,17.00
2018-09-20T01:10:51.745Z,17.01
2018-09-20T01:13:23.997Z,16.97
2018-09-20T01:15:56.257Z,16.99
2018-09-20T01:18:28.497Z,16.99
2018-09-20T01:21:00.741Z,16.97
2018-09-20T01:23:33.029Z,16.93
2018-09-20T01:26:05.344Z,16.91
2018-09-20T01:28:37.557Z,16.89
2018-09-20T01:31:09.818Z,16.93
2018-09-20T01:33:42.052Z,16.88
2018-09-20T01:36:14.339Z,16.84
2018-09-20T01:38:46.596Z,16.87
2018-09-20T01:41:18.839Z,16.95
2018-09-20T01:43:51.089Z,16.88
2018-09-20T01:46:23.324Z,16.84
2018-09-20T01:48:55.580Z,16.80
2018-09-20T01:51:27.898Z,16.77
2018-09-20T01:54:00.167Z,16.74
2018-09-20T01:56:32.464Z,16.78
2018-09-20T01:59:04.750Z,16.75
2018-09-20T02:01:37.076Z,16.72
2018-09-20T02:04:09.319Z,16.72
2018-09-20T02:06:41.600Z,16.61
2018-09-20T02:09:13.888Z,16.60
2018-09-20T02:11:46.143Z,16.58
2018-09-20T02:14:18.393Z,16.56
2018-09-20T02:16:50.634Z,16.55
2018-09-20T02:19:22.873Z,16.56
2018-09-20T02:21:55.171Z,16.59
2018-09-20T02:24:27.416Z,16.48
2018-09-20T02:26:59.645Z,16.42
2018-09-20T02:29:31.882Z,16.46
2018-09-20T02:32:04.132Z,16.44
2018-09-20T02:34:36.381Z,16.44
2018-09-20T02:37:08.674Z,16.35
2018-09-20T02:39:40.915Z,16.36
2018-09-20T02:42:13.191Z,16.33
2018-09-20T02:44:45.530Z,16.25
2018-09-20T02:47:17.764Z,16.31
2018-09-20T02:49:50.030Z,16.31
2018-09-20T02:52:22.261Z,16.28
2018-09-20T02:54:54.510Z,16.30
2018-09-20T02:57:26.750Z,16.23
2018-09-20T02:59:59.035Z,16.22
2018-09-20T03:02:31.329Z,16.20
2018-09-20T03:05:03.897Z,16.17
2018-09-20T03:07:36.142Z,16.14
2018-09-20T03:10:08.430Z,16.07
2018-09-20T03:12:40.731Z,16.08
2018-09-20T03:15:13.010Z,16.06
2018-09-20T03:17:45.241Z,16.04
2018-09-20T03:20:17.590Z,16.02
2018-09-20T03:22:49.808Z,15.98
2018-09-20T03:25:22.058Z,16.02
2018-09-20T03:27:54.352Z,16.03
2018-09-20T03:30:26.842Z,16.05
2018-09-20T03:32:59.061Z,16.03
2018-09-20T03:35:31.345Z,16.04
2018-09-20T03:38:03.591Z,16.04
2018-09-20T03:40:35.875Z,16.04
2018-09-20T03:43:08.149Z,16.00
2018-09-20T03:45:40.387Z,15.95
2018-09-20T03:48:12.689Z,15.91
2018-09-20T03:50:44.973Z,15.91
2018-09-20T03:53:17.224Z,15.87
2018-09-20T03:55:49.505Z,15.93
2018-09-20T03:58:21.785Z,15.87
2018-09-20T04:00:54.052Z,15.85
2018-09-20T04:03:26.322Z,15.88
2018-09-20T04:05:58.612Z,15.84
2018-09-20T04:08:30.893Z,15.85
2018-09-20T04:11:03.142Z,15.85
2018-09-20T04:13:35.465Z,15.90
2018-09-20T04:16:07.704Z,15.84
2018-09-20T04:18:39.995Z,15.81
2018-09-20T04:21:16.388Z,15.82
2018-09-20T04:23:48.675Z,15.82
2018-09-20T04:26:20.896Z,15.79
2018-09-20T04:28:53.261Z,15.83
2018-09-20T04:31:26.115Z,15.80
2018-09-20T04:33:59.381Z,15.75
2018-09-20T04:36:31.666Z,15.76
2018-09-20T04:39:06.975Z,15.77
2018-09-20T04:41:39.249Z,15.66
2018-09-20T04:44:11.496Z,15.61
2018-09-20T04:46:43.782Z,15.61
2018-09-20T04:49:16.058Z,15.51
2018-09-20T04:51:48.423Z,15.50
2018-09-20T04:54:20.711Z,15.52
2018-09-20T04:56:52.988Z,15.49
2018-09-20T04:59:25.274Z,15.45
2018-09-20T05:01:57.740Z,15.47
2018-09-20T05:04:30.124Z,15.47
2018-09-20T05:07:02.375Z,15.45
2018-09-20T05:09:34.670Z,15.47
2018-09-20T05:12:06.928Z,15.57
2018-09-20T05:14:39.213Z,15.59
2018-09-20T05:17:11.475Z,15.62
2018-09-20T05:19:43.816Z,15.66
2018-09-20T05:22:16.101Z,15.72
2018-09-20T05:24:48.393Z,15.74
2018-09-20T05:27:20.669Z,15.74
2018-09-20T05:29:53.011Z,15.78
2018-09-20T05:32:25.295Z,15.79
2018-09-20T05:34:57.632Z,15.78
2018-09-20T05:37:29.876Z,15.81
2018-09-20T05:40:02.180Z,15.91
2018-09-20T05:42:34.428Z,15.99
2018-09-20T05:45:06.833Z,16.17
2018-09-20T05:47:39.092Z,16.30
2018-09-20T05:50:11.380Z,16.34
2018-09-20T05:52:43.653Z,16.35
2018-09-20T05:55:15.958Z,16.42
2018-09-20T05:57:48.249Z,16.48
2018-09-20T06:00:20.592Z,16.63
2018-09-20T06:02:53.032Z,16.72
2018-09-20T06:05:25.337Z,16.86
2018-09-20T06:07:57.660Z,17.05
2018-09-20T06:10:29.960Z,17.33
2018-09-20T06:13:02.313Z,17.68
2018-09-20T06:15:34.614Z,18.01
2018-09-20T06:18:06.861Z,18.32
2018-09-20T06:20:39.211Z,18.40
2018-09-20T06:23:11.484Z,18.71
2018-09-20T06:25:44.130Z,18.96
2018-09-20T06:28:16.381Z,19.21
2018-09-20T06:30:48.755Z,19.61
2018-09-20T06:33:21.023Z,19.94
2018-09-20T06:35:53.416Z,20.41
2018-09-20T06:38:25.687Z,20.75
2018-09-20T06:40:57.978Z,21.15
2018-09-20T06:43:30.224Z,21.48
2018-09-20T06:46:02.538Z,21.68
2018-09-20T06:48:34.780Z,22.01
2018-09-20T06:51:07.132Z,22.25
2018-09-20T06:53:39.392Z,22.47
2018-09-20T06:56:11.815Z,22.61
2018-09-20T06:58:44.097Z,22.76
2018-09-20T07:01:16.386Z,22.66
2018-09-20T07:03:48.720Z,22.57
2018-09-20T07:06:21.462Z,22.59
2018-09-20T07:08:53.697Z,22.53
2018-09-20T07:11:25.992Z,22.54
2018-09-20T07:13:58.313Z,22.54
2018-09-20T07:16:30.646Z,22.83
2018-09-20T07:19:03.290Z,22.84
2018-09-20T07:21:35.520Z,22.73
2018-09-20T07:24:07.750Z,22.79
2018-09-20T07:26:40.034Z,23.06
2018-09-20T07:29:12.354Z,23.27
2018-09-20T07:31:44.624Z,23.34
2018-09-20T07:34:16.893Z,23.48
2018-09-20T07:36:49.212Z,23.49
2018-09-20T07:39:21.478Z,23.41
2018-09-20T07:41:53.799Z,23.50
2018-09-20T07:44:26.054Z,23.53
2018-09-20T07:46:58.313Z,23.68
2018-09-20T07:49:30.589Z,23.93
2018-09-20T07:52:02.949Z,24.11
2018-09-20T07:54:35.251Z,24.18
2018-09-20T07:57:07.709Z,24.40
2018-09-20T07:59:40.031Z,24.56
2018-09-20T08:02:12.344Z,24.89
2018-09-20T08:04:44.636Z,25.17
2018-09-20T08:07:17.108Z,25.49
2018-09-20T08:09:49.319Z,25.57
2018-09-20T08:12:21.592Z,25.79
2018-09-20T08:14:53.875Z,25.90
2018-09-20T08:17:26.144Z,25.89
2018-09-20T08:19:58.414Z,26.02
2018-09-20T08:22:30.724Z,26.22
2018-09-20T08:25:03.062Z,26.41
2018-09-20T08:27:35.304Z,26.62
2018-09-20T08:30:07.685Z,26.77
2018-09-20T08:32:39.989Z,26.83
2018-09-20T08:35:12.261Z,26.96
2018-09-20T08:37:44.600Z,27.04
2018-09-20T08:40:17.134Z,27.09
2018-09-20T08:42:49.427Z,27.22
2018-09-20T08:45:21.721Z,27.33
2018-09-20T08:47:53.981Z,27.48
2018-09-20T08:50:26.302Z,27.58
2018-09-20T08:52:58.596Z,27.71
2018-09-20T08:55:30.886Z,27.80
2018-09-20T08:58:03.160Z,27.91
2018-09-20T09:00:35.429Z,28.06
2018-09-20T09:03:07.690Z,28.17
2018-09-20T09:05:40.083Z,28.16
2018-09-20T09:08:12.345Z,28.20
2018-09-20T09:10:44.629Z,28.28
2018-09-20T09:13:16.903Z,28.46
2018-09-20T09:15:49.178Z,28.50
2018-09-20T09:18:21.520Z,28.39
2018-09-20T09:20:53.809Z,28.30
2018-09-20T09:23:26.134Z,28.30
2018-09-20T09:25:58.456Z,28.41
2018-09-20T09:28:30.814Z,28.60
2018-09-20T09:31:03.067Z,28.73
2018-09-20T09:33:35.383Z,28.79
2018-09-20T09:36:07.693Z,28.97
2018-09-20T09:38:40.080Z,28.90
2018-09-20T09:41:12.353Z,29.00
2018-09-20T09:43:44.593Z,29.14
2018-09-20T09:46:16.941Z,29.22
2018-09-20T09:48:49.333Z,29.30
2018-09-20T09:51:21.591Z,29.17
2018-09-20T09:53:53.904Z,29.18
2018-09-20T09:56:26.153Z,29.25
2018-09-20T09:58:58.429Z,29.27
2018-09-20T10:01:30.765Z,29.25
2018-09-20T10:04:03.229Z,29.21
2018-09-20T10:06:35.500Z,29.35
2018-09-20T10:09:09.246Z,29.32
2018-09-20T10:11:41.485Z,29.21
2018-09-20T10:14:13.771Z,29.19
2018-09-20T10:16:46.057Z,29.23
2018-09-20T10:19:18.353Z,29.13
2018-09-20T10:21:50.642Z,29.13
2018-09-20T10:24:22.941Z,29.22
2018-09-20T10:26:55.261Z,29.23
2018-09-20T10:29:27.570Z,29.23
2018-09-20T10:31:59.875Z,29.40
2018-09-20T10:34:32.226Z,29.47
2018-09-20T10:37:05.575Z,29.49
2018-09-20T10:39:37.825Z,29.55
2018-09-20T10:42:10.145Z,29.55
2018-09-20T10:44:42.412Z,29.43
2018-09-20T10:47:14.788Z,29.32
2018-09-20T10:49:47.058Z,29.37
2018-09-20T10:52:19.359Z,29.35
2018-09-20T10:54:51.654Z,29.23
2018-09-20T10:57:24.031Z,29.29
2018-09-20T10:59:56.297Z,29.35
2018-09-20T11:02:28.612Z,29.40
2018-09-20T11:05:01.014Z,29.49
2018-09-20T11:07:33.304Z,29.48
2018-09-20T11:10:05.656Z,29.55
2018-09-20T11:12:37.993Z,29.64
2018-09-20T11:15:10.356Z,29.82
2018-09-20T11:17:42.668Z,29.80
2018-09-20T11:20:14.929Z,29.86
2018-09-20T11:22:47.251Z,29.87
2018-09-20T11:25:19.561Z,29.91
2018-09-20T11:30:31.070Z,29.77
2018-09-20T11:33:03.434Z,29.79
2018-09-20T11:35:35.706Z,29.92
2018-09-20T11:38:08.005Z,29.90
2018-09-20T11:40:40.268Z,29.99
2018-09-20T11:43:12.609Z,29.88
2018-09-20T11:45:44.889Z,29.85
2018-09-20T11:48:17.188Z,29.80
2018-09-20T11:50:49.446Z,29.72
2018-09-20T11:53:21.748Z,29.60
2018-09-20T11:55:54.025Z,29.62
2018-09-20T11:58:26.313Z,29.51
2018-09-20T12:00:58.666Z,29.38
2018-09-20T12:03:30.965Z,29.48
2018-09-20T12:06:03.247Z,29.46
2018-09-20T12:08:35.532Z,29.54
2018-09-20T12:11:07.949Z,29.59
2018-09-20T12:13:40.288Z,29.66
2018-09-20T12:16:12.582Z,29.62
2018-09-20T12:18:44.901Z,29.60
2018-09-20T12:21:17.201Z,29.72
2018-09-20T12:23:49.517Z,29.62
2018-09-20T12:26:22.069Z,29.75
2018-09-20T12:28:54.385Z,29.81
2018-09-20T12:31:26.769Z,29.72
2018-09-20T12:33:59.049Z,29.81
2018-09-20T12:36:31.332Z,29.85
2018-09-20T12:39:06.053Z,30.03
2018-09-20T12:41:38.569Z,30.01
2018-09-20T12:44:10.824Z,30.11
2018-09-20T12:46:43.146Z,30.24
2018-09-20T12:49:15.424Z,30.20
2018-09-20T12:51:47.718Z,30.29
2018-09-20T12:54:20.013Z,30.41
2018-09-20T12:56:52.302Z,30.43
2018-09-20T12:59:24.712Z,30.39
2018-09-20T13:01:57.020Z,30.36
2018-09-20T13:04:29.318Z,30.29
2018-09-20T13:07:01.625Z,30.15
2018-09-20T13:09:33.945Z,30.15
2018-09-20T13:12:06.311Z,30.15
2018-09-20T13:14:38.571Z,30.15
2018-09-20T13:17:10.899Z,30.24
2018-09-20T13:19:43.225Z,30.28
2018-09-20T13:22:15.580Z,30.15
2018-09-20T13:24:47.885Z,30.05
2018-09-20T13:27:20.234Z,29.92
2018-09-20T13:29:52.541Z,29.99
2018-09-20T13:32:24.850Z,30.03
2018-09-20T13:34:57.193Z,30.20
2018-09-20T13:37:29.453Z,30.26
2018-09-20T13:40:01.845Z,30.17
2018-09-20T13:42:34.144Z,30.04
2018-09-20T13:45:06.507Z,30.03
2018-09-20T13:47:38.825Z,30.08
2018-09-20T13:50:11.207Z,30.13
2018-09-20T13:52:43.573Z,29.97
2018-09-20T13:55:15.879Z,30.09
2018-09-20T13:57:48.233Z,29.96
2018-09-20T14:00:20.669Z,30.02
2018-09-20T14:02:53.147Z,29.98
2018-09-20T14:05:25.553Z,29.96
2018-09-20T14:07:57.939Z,29.99
2018-09-20T14:10:30.269Z,30.06
2018-09-20T14:13:02.649Z,30.03
2018-09-20T14:15:35.037Z,30.02
2018-09-20T14:18:07.309Z,30.04
2018-09-20T14:20:39.648Z,29.93
2018-09-20T14:23:11.999Z,29.93
2018-09-20T14:25:44.401Z,29.99
2018-09-20T14:28:16.734Z,29.93
2018-09-20T14:30:49.100Z,29.91
2018-09-20T14:33:21.442Z,29.85
2018-09-20T14:35:53.793Z,29.76
2018-09-20T14:38:26.115Z,29.75
2018-09-20T14:40:58.440Z,29.80
2018-09-20T14:43:30.750Z,29.86
2018-09-20T14:46:03.093Z,29.79
2018-09-20T14:48:35.488Z,29.79
2018-09-20T14:51:08.089Z,29.86
2018-09-20T14:53:40.393Z,29.92
2018-09-20T14:56:12.786Z,29.95
2018-09-20T14:58:45.146Z,29.85
2018-09-20T15:01:17.437Z,29.73
2018-09-20T15:03:49.774Z,29.59
2018-09-20T15:06:22.100Z,29.51
2018-09-20T15:08:54.468Z,29.53
2018-09-20T15:11:26.794Z,29.41
2018-09-20T15:13:59.221Z,29.38
2018-09-20T15:16:31.598Z,29.29
2018-09-20T15:19:04.059Z,29.26
2018-09-20T15:21:36.347Z,29.32
2018-09-20T15:24:08.702Z,29.22
2018-09-20T15:26:41.017Z,29.26
2018-09-20T15:29:13.297Z,29.24
2018-09-20T15:31:45.624Z,29.18
2018-09-20T15:34:17.973Z,29.09
2018-09-20T15:36:50.281Z,29.00
2018-09-20T15:39:22.685Z,29.06
2018-09-20T15:41:55.059Z,29.15
2018-09-20T15:44:27.370Z,29.06
2018-09-20T15:46:59.637Z,28.95
2018-09-20T15:49:31.947Z,28.88
2018-09-20T15:52:04.293Z,28.89
2018-09-20T15:54:36.620Z,28.84
2018-09-20T15:57:08.918Z,28.86
2018-09-20T15:59:41.218Z,28.79
2018-09-20T16:02:13.492Z,28.70
2018-09-20T16:04:45.852Z,28.66
2018-09-20T16:07:18.150Z,28.55
2018-09-20T16:09:50.466Z,28.47
2018-09-20T16:12:22.823Z,28.42
2018-09-20T16:14:55.116Z,28.36
2018-09-20T16:17:27.434Z,28.30
2018-09-20T16:19:59.781Z,28.25
2018-09-20T16:22:32.123Z,28.19
2018-09-20T16:25:05.149Z,28.08
2018-09-20T16:27:37.504Z,28.00
2018-09-20T16:30:24.745Z,27.97
2018-09-20T16:33:18.622Z,27.91
2018-09-20T16:35:59.592Z,27.83
2018-09-20T16:38:40.803Z,27.76
2018-09-20T16:41:15.073Z,27.63
2018-09-20T16:43:47.437Z,27.53
2018-09-20T16:46:19.793Z,27.44
2018-09-20T16:48:52.033Z,27.33
2018-09-20T16:51:24.394Z,27.24
2018-09-20T16:53:56.709Z,27.12
2018-09-20T16:57:00.897Z,26.99
2018-09-20T16:59:33.147Z,26.89
2018-09-20T17:02:05.647Z,26.84
2018-09-20T17:04:38.001Z,26.78
2018-09-20T17:07:10.405Z,26.66
2018-09-20T17:09:42.688Z,26.57
2018-09-20T17:12:15.072Z,26.56
2018-09-20T17:14:47.420Z,26.44
2018-09-20T17:17:19.659Z,26.32
2018-09-20T17:19:52.044Z,26.22
2018-09-20T17:22:24.435Z,26.17
2018-09-20T17:24:56.749Z,26.04
2018-09-20T17:27:29.083Z,25.94
2018-09-20T17:30:01.434Z,25.80
2018-09-20T17:32:33.792Z,25.68
2018-09-20T17:35:06.217Z,25.57
2018-09-20T17:37:39.209Z,25.51
2018-09-20T17:40:12.990Z,25.38
2018-09-20T17:42:46.771Z,25.24
2018-09-20T17:45:19.123Z,25.12
2018-09-20T17:47:51.461Z,24.98
2018-09-20T17:50:23.860Z,24.90
2018-09-20T17:52:56.475Z,24.83
2018-09-20T17:55:29.224Z,24.77
2018-09-20T17:58:01.765Z,24.69
2018-09-20T18:00:34.168Z,24.60
2018-09-20T18:03:06.497Z,24.57
2018-09-20T18:05:38.810Z,24.53
2018-09-20T18:08:11.130Z,24.45
2018-09-20T18:10:43.438Z,24.41
2018-09-20T18:13:15.781Z,24.33
2018-09-20T18:15:48.164Z,24.26
2018-09-20T18:18:20.548Z,24.20
2018-09-20T18:20:52.878Z,24.24
2018-09-20T18:23:25.185Z,24.32
2018-09-20T18:25:57.593Z,24.33
2018-09-20T18:28:29.906Z,24.15
2018-09-20T18:31:02.299Z,24.09
2018-09-20T18:33:34.601Z,24.05
2018-09-20T18:36:06.981Z,23.98
2018-09-20T18:38:39.274Z,23.93
2018-09-20T18:41:11.634Z,23.80
2018-09-20T18:43:43.972Z,23.72
2018-09-20T18:46:16.396Z,23.70
2018-09-20T18:48:48.712Z,23.67
2018-09-20T18:51:21.161Z,23.63
2018-09-20T18:53:53.484Z,23.59
2018-09-20T18:56:25.881Z,23.55
2018-09-20T18:58:58.221Z,23.46
2018-09-20T19:01:30.583Z,23.38
2018-09-20T19:04:02.936Z,23.32
2018-09-20T19:06:35.318Z,23.24
2018-09-20T19:09:08.362Z,23.15
2018-09-20T19:11:40.788Z,23.09
2018-09-20T19:14:13.162Z,23.11
2018-09-20T19:16:45.482Z,23.01
2018-09-20T19:19:17.942Z,22.75
2018-09-20T19:21:50.290Z,22.49
2018-09-20T19:24:22.649Z,22.34
2018-09-20T19:26:54.978Z,22.27
2018-09-20T19:29:27.362Z,22.28
2018-09-20T19:31:59.754Z,22.27
2018-09-20T19:34:32.132Z,22.18
2018-09-20T19:37:04.567Z,22.17
2018-09-20T19:39:36.847Z,22.13
2018-09-20T19:42:09.229Z,22.06
2018-09-20T19:44:41.600Z,22.01
2018-09-20T19:47:13.973Z,21.94
2018-09-20T19:49:46.371Z,21.91
2018-09-20T19:52:18.842Z,21.90
2018-09-20T19:54:51.320Z,21.81
2018-09-20T19:57:23.630Z,21.75
2018-09-20T19:59:55.950Z,21.75
2018-09-20T20:02:28.293Z,21.71
2018-09-20T20:05:00.676Z,21.68
2018-09-20T20:07:33.054Z,21.61
2018-09-20T20:10:05.416Z,21.60
2018-09-20T20:12:37.829Z,21.53
2018-09-20T20:15:10.166Z,21.48
2018-09-20T20:17:42.696Z,21.44
2018-09-20T20:20:15.064Z,21.38
2018-09-20T20:22:47.465Z,21.36
2018-09-20T20:25:19.740Z,21.30
2018-09-20T20:27:52.095Z,21.28
2018-09-20T20:30:24.611Z,21.22
2018-09-20T20:32:56.966Z,21.11
2018-09-20T20:35:29.298Z,21.00
2018-09-20T20:38:01.950Z,20.97
2018-09-20T20:40:34.535Z,20.95
2018-09-20T20:43:07.270Z,20.83
2018-09-20T20:45:40.093Z,20.76
2018-09-20T20:48:14.259Z,20.70
2018-09-20T20:50:46.676Z,20.76
2018-09-20T20:53:19.001Z,20.74
2018-09-20T20:55:51.295Z,20.68
2018-09-20T20:58:23.707Z,20.59
2018-09-20T21:00:56.054Z,20.53
2018-09-20T21:03:28.437Z,20.56
2018-09-20T21:06:00.738Z,20.47
2018-09-20T21:08:33.030Z,20.37
2018-09-20T21:11:05.338Z,20.36
2018-09-20T21:13:37.757Z,20.35
2018-09-20T21:16:10.122Z,20.37
2018-09-20T21:18:42.550Z,20.28
2018-09-20T21:21:14.944Z,20.25
2018-09-20T21:23:47.288Z,20.28
2018-09-20T21:26:19.632Z,20.22
2018-09-20T21:28:51.954Z,20.17
2018-09-20T21:31:24.295Z,20.06
2018-09-20T21:33:57.075Z,20.01
2018-09-20T21:36:29.524Z,19.90
2018-09-20T21:39:01.876Z,19.78
2018-09-20T21:41:34.230Z,19.70
2018-09-20T21:44:06.611Z,19.69
2018-09-20T21:46:38.912Z,19.66
2018-09-20T21:49:11.172Z,19.67
2018-09-20T21:51:43.501Z,19.61
2018-09-20T21:54:15.816Z,19.57
2018-09-20T21:56:48.105Z,19.49
2018-09-20T21:59:20.408Z,19.35
2018-09-20T22:01:58.424Z,19.30
2018-09-20T22:04:31.596Z,19.30
2018-09-20T22:07:03.981Z,19.31
2018-09-20T22:09:36.408Z,19.30
2018-09-20T22:12:08.825Z,19.32
2018-09-20T22:14:41.124Z,19.35
2018-09-20T22:17:13.443Z,19.32
2018-09-20T22:19:45.783Z,19.24
2018-09-20T22:22:18.093Z,19.22
2018-09-20T22:24:50.395Z,19.15
2018-09-20T22:27:22.742Z,19.12
2018-09-20T22:29:55.034Z,19.03
2018-09-20T22:32:27.357Z,18.98
2018-09-20T22:34:59.679Z,18.96
2018-09-20T22:37:32.024Z,18.88
2018-09-20T22:40:04.521Z,18.87
2018-09-20T22:42:36.808Z,18.90
2018-09-20T22:45:09.119Z,18.87
2018-09-20T22:47:41.445Z,18.85
2018-09-20T22:50:13.701Z,18.78
2018-09-20T22:52:45.998Z,18.79
2018-09-20T22:55:18.299Z,18.72
2018-09-20T22:57:50.580Z,18.71
2018-09-20T23:00:25.474Z,18.62
2018-09-20T23:02:57.764Z,18.61
2018-09-20T23:05:30.065Z,18.53
2018-09-20T23:08:02.343Z,18.44
2018-09-20T23:10:34.665Z,18.39
2018-09-20T23:13:06.987Z,18.35
2018-09-20T23:15:39.297Z,18.29
2018-09-20T23:18:11.556Z,18.33
2018-09-20T23:20:43.901Z,18.34
2018-09-20T23:23:16.168Z,18.40
2018-09-20T23:25:48.439Z,18.37
2018-09-20T23:28:20.679Z,18.36
2018-09-20T23:30:52.974Z,18.34
2018-09-20T23:33:25.248Z,18.32
2018-09-20T23:35:57.507Z,18.27
2018-09-20T23:38:29.785Z,18.24
2018-09-20T23:41:02.067Z,18.23
2018-09-20T23:43:34.296Z,18.19
2018-09-20T23:46:06.613Z,18.12
2018-09-20T23:48:38.854Z,18.09
2018-09-20T23:51:11.176Z,18.01
2018-09-20T23:53:43.418Z,18.02
2018-09-20T23:56:15.699Z,17.97
2018-09-20T23:58:47.957Z,17.93
